Time;durP1;ratioP1;P1;durP2;ratioP2;P2;SDS_P1;SDS_P2;PMS_P1;PMS_P2;Temp;Humidity;BMP_temperature;BMP_pressure;BME280_temperature;BME280_humidity;BME280_pressure;Samples;Min_cycle;Max_cycle;Signal;HPM_P1;HPM_P2
2022/12/15 00:40:48;;;;;;;;;;;;;;;;;;5002394;28;19920;-79
2022/12/15 00:43:14;;;;;;;;;;;;;;;;;;5003254;28;19913;-79
2022/12/15 00:48:24;;;;;;;;;;;;;;;;;;5006353;28;20003;-80
2022/12/15 00:50:53;;;;;;;;;;;;;;;;;;4985165;28;20021;-80
2022/12/15 01:20:42;;;;;;;;;;;;;;;;;;4999334;28;20000;-78
2022/12/15 01:23:08;;;;;;;;;;;;;;;;;;4981227;28;20051;-78
2022/12/15 01:25:34;;;;;;;;;;;;;;;;;;4980835;28;19936;-79
2022/12/15 01:27:59;;;;;;;;;;;;;;;;;;4996870;28;20432;-78
2022/12/15 01:30:25;;;;;;;;;;;;;;;;;;4999282;28;19917;-78
2022/12/15 01:32:51;;;;;;;;;;;;;;;;;;5007440;28;19928;-79
2022/12/15 01:35:16;;;;;;;;;;;;;;;;;;5008387;28;20012;-79
2022/12/15 01:37:42;;;;;;;;;;;;;;;;;;5008413;28;20598;-78
2022/12/15 01:42:52;;;;;;;;;;;;;;;;;;5007847;28;19919;-79
2022/12/15 01:45:18;;;;;;;;;;;;;;;;;;5008249;28;19913;-77
2022/12/15 01:47:44;;;;;;;;;;;;;;;;;;4990646;28;20024;-78
2022/12/15 01:50:09;;;;;;;;;;;;;;;;;;5003052;28;19913;-80
2022/12/15 01:52:35;;;;;;;;;;;;;;;;;;4996430;28;19913;-78
2022/12/15 01:55:00;;;;;;;;;;;;;;;;;;5006610;28;20406;-79
2022/12/15 01:57:26;;;;;;;;;;;;;;;;;;5009239;28;19925;-78
2022/12/15 01:59:52;;;;;;;;;;;;;;;;;;5007639;28;19929;-79
2022/12/15 02:02:19;;;;;;;;;;;;;;;;;;5009378;28;19956;-78
2022/12/15 02:04:45;;;;;;;;;;;;;;;;;;5008750;28;19917;-78
2022/12/15 02:07:10;;;;;;;;;;;;;;;;;;4989778;28;19972;-78
2022/12/15 02:09:36;;;;;;;;;;;;;;;;;;4991195;28;19921;-79
2022/12/15 02:12:01;;;;;;;;;;;;;;;;;;5008671;28;20003;-79
2022/12/15 02:14:27;;;;;;;;;;;;;;;;;;5008993;28;20305;-78
2022/12/15 02:16:53;;;;;;;;;;;;;;;;;;5009111;28;20444;-79
2022/12/15 02:19:19;;;;;;;;;;;;;;;;;;5008885;28;20394;-79
2022/12/15 02:21:44;;;;;;;;;;;;;;;;;;4991403;28;19953;-78
2022/12/15 02:24:10;;;;;;;;;;;;;;;;;;4990873;28;19917;-79
2022/12/15 02:26:36;;;;;;;;;;;;;;;;;;4990847;28;19979;-79
2022/12/15 02:29:02;;;;;;;;;;;;;;;;;;5008242;28;19913;-79
2022/12/15 02:34:12;;;;;;;;;;;;;;;;;;5002039;28;20382;-79
2022/12/15 02:36:38;;;;;;;;;;;;;;;;;;4975320;28;19914;-79
2022/12/15 02:39:04;;;;;;;;;;;;;;;;;;4974878;28;19971;-78
2022/12/15 02:41:29;;;;;;;;;;;;;;;;;;4992452;28;20629;-79
2022/12/15 02:43:56;;;;;;;;;;;;;;;;;;4992101;28;20072;-78
2022/12/15 02:46:21;;;;;;;;;;;;;;;;;;4992556;28;20011;-80
2022/12/15 02:48:47;;;;;;;;;;;;;;;;;;4974891;28;19913;-78
2022/12/15 02:51:13;;;;;;;;;;;;;;;;;;4992205;28;19913;-78
2022/12/15 02:53:39;;;;;;;;;;;;;;;;;;4992857;28;20390;-79
2022/12/15 02:56:04;;;;;;;;;;;;;;;;;;4991932;28;19964;-78
2022/12/15 02:58:30;;;;;;;;;;;;;;;;;;4958741;28;19990;-79
2022/12/15 03:00:56;;;;;;;;;;;;;;;;;;4998423;28;19913;-80
2022/12/15 03:03:22;;;;;;;;;;;;;;;;;;5012274;28;19913;-82
2022/12/15 03:05:48;;;;;;;;;;;;;;;;;;5008823;28;19957;-81
2022/12/15 03:08:13;;;;;;;;;;;;;;;;;;5024597;28;19920;-81
2022/12/15 03:10:39;;;;;;;;;;;;;;;;;;5021671;28;19913;-81
2022/12/15 03:13:05;;;;;;;;;;;;;;;;;;5021094;28;19952;-82
2022/12/15 03:15:31;;;;;;;;;;;;;;;;;;5024625;28;19912;-82
2022/12/15 03:17:56;;;;;;;;;;;;;;;;;;5038546;28;19925;-82
2022/12/15 03:20:22;;;;;;;;;;;;;;;;;;5035778;28;19935;-82
2022/12/15 03:22:48;;;;;;;;;;;;;;;;;;5018193;28;19913;-80
2022/12/15 03:25:14;;;;;;;;;;;;;;;;;;5012833;28;20305;-80
2022/12/15 03:27:40;;;;;;;;;;;;;;;;;;5014089;28;20004;-80
2022/12/15 03:30:05;;;;;;;;;;;;;;;;;;5014715;28;19921;-81
2022/12/15 03:32:31;;;;;;;;;;;;;;;;;;5015351;28;20370;-81
2022/12/15 03:34:57;;;;;;;;;;;;;;;;;;5013771;28;20390;-75
2022/12/15 03:37:22;;;;;;;;;;;;;;;;;;4992189;28;19913;-76
2022/12/15 03:39:48;;;;;;;;;;;;;;;;;;5009406;28;19969;-76
2022/12/15 03:42:46;;;;;;;;;;;;;;;;;;5009707;28;19913;-76
2022/12/15 03:44:59;;;;;;;;;;;;;;;;;;5010664;28;19921;-76
2022/12/15 03:47:25;;;;;;;;;;;;;;;;;;5010470;28;19914;-76
2022/12/15 03:49:51;;;;;;;;;;;;;;;;;;5008411;28;20453;-76
2022/12/15 03:52:16;;;;;;;;;;;;;;;;;;4992865;28;19909;-76
2022/12/15 03:54:42;;;;;;;;;;;;;;;;;;4992738;28;19913;-77
2022/12/15 03:57:08;;;;;;;;;;;;;;;;;;4992985;28;19964;-77
2022/12/15 03:59:33;;;;;;;;;;;;;;;;;;4992983;28;19928;-77
2022/12/15 04:01:59;;;;;;;;;;;;;;;;;;4976510;28;19917;-77
2022/12/15 04:04:24;;;;;;;;;;;;;;;;;;4993004;28;19913;-77
2022/12/15 04:06:50;;;;;;;;;;;;;;;;;;5010576;28;19960;-76
2022/12/15 04:09:17;;;;;;;;;;;;;;;;;;5010597;28;20047;-76
2022/12/15 04:11:43;;;;;;;;;;;;;;;;;;4994048;28;19957;-76
2022/12/15 04:14:08;;;;;;;;;;;;;;;;;;5011468;28;20356;-76
2022/12/15 04:16:34;;;;;;;;;;;;;;;;;;5012807;28;19948;-76
2022/12/15 04:21:45;;;;;;;;;;;;;;;;;;5025039;28;20311;-76
2022/12/15 05:32:43;;;;;;;;;;;;;;;;;;4970972;28;19914;-79
2022/12/15 05:35:08;;;;;;;;;;;;;;;;;;4972181;28;19920;-79
2022/12/15 05:37:34;;;;;;;;;;;;;;;;;;4975902;28;19914;-79
2022/12/15 05:40:00;;;;;;;;;;;;;;;;;;4986094;28;20064;-81
2022/12/15 05:42:25;;;;;;;;;;;;;;;;;;5001041;28;19914;-81
2022/12/15 05:44:51;;;;;;;;;;;;;;;;;;4993815;28;19960;-81
2022/12/15 05:47:17;;;;;;;;;;;;;;;;;;4990247;28;19914;-81
2022/12/15 05:49:43;;;;;;;;;;;;;;;;;;4980364;28;19914;-81
2022/12/15 05:52:09;;;;;;;;;;;;;;;;;;4978198;28;19918;-80
2022/12/15 05:54:34;;;;;;;;;;;;;;;;;;4978686;28;20448;-81
2022/12/15 05:57:00;;;;;;;;;;;;;;;;;;5007205;28;20024;-80
2022/12/15 05:59:26;;;;;;;;;;;;;;;;;;5017033;28;19921;-81
2022/12/15 06:01:52;;;;;;;;;;;;;;;;;;5017043;28;19906;-82
2022/12/15 06:04:18;;;;;;;;;;;;;;;;;;5014000;28;20423;-82
2022/12/15 06:06:44;;;;;;;;;;;;;;;;;;4993706;28;19924;-84
2022/12/15 06:09:09;;;;;;;;;;;;;;;;;;5036024;28;19980;-81
2022/12/15 06:11:36;;;;;;;;;;;;;;;;;;5028966;28;20000;-82
2022/12/15 06:14:01;;;;;;;;;;;;;;;;;;5026095;28;19928;-82
2022/12/15 06:16:27;;;;;;;;;;;;;;;;;;5014910;28;19972;-80
2022/12/15 06:18:53;;;;;;;;;;;;;;;;;;5023826;28;19922;-82
2022/12/15 06:21:18;;;;;;;;;;;;;;;;;;5005718;28;19913;-81
2022/12/15 06:23:44;;;;;;;;;;;;;;;;;;5030535;28;19924;-83
2022/12/15 06:26:10;;;;;;;;;;;;;;;;;;5031970;28;19932;-82
2022/12/15 06:28:36;;;;;;;;;;;;;;;;;;5012897;28;19936;-82
2022/12/15 06:31:01;;;;;;;;;;;;;;;;;;5025502;28;19913;-81
2022/12/15 06:33:27;;;;;;;;;;;;;;;;;;5027163;28;20315;-81
2022/12/15 06:35:53;;;;;;;;;;;;;;;;;;5029181;28;19920;-81
2022/12/15 06:38:19;;;;;;;;;;;;;;;;;;5028715;28;19921;-81
2022/12/15 06:40:45;;;;;;;;;;;;;;;;;;5030420;28;19917;-81
2022/12/15 06:43:10;;;;;;;;;;;;;;;;;;5030763;28;19893;-84
2022/12/15 06:45:36;;;;;;;;;;;;;;;;;;5019183;28;19897;-85
2022/12/15 06:48:01;;;;;;;;;;;;;;;;;;5036554;28;20227;-83
2022/12/15 06:50:27;;;;;;;;;;;;;;;;;;5026141;28;20298;-82
2022/12/15 06:52:53;;;;;;;;;;;;;;;;;;5034859;28;19941;-83
2022/12/15 06:55:18;;;;;;;;;;;;;;;;;;5021152;28;19918;-79
2022/12/15 06:57:44;;;;;;;;;;;;;;;;;;5020136;28;19925;-81
2022/12/15 07:00:10;;;;;;;;;;;;;;;;;;5026452;28;19927;-82
2022/12/15 07:02:36;;;;;;;;;;;;;;;;;;5027279;28;19965;-87
2022/12/15 07:05:01;;;;;;;;;;;;;;;;;;5035528;28;19909;-82
2022/12/15 07:07:28;;;;;;;;;;;;;;;;;;5011085;28;19968;-82
2022/12/15 07:09:53;;;;;;;;;;;;;;;;;;5010206;28;19913;-82
2022/12/15 07:12:19;;;;;;;;;;;;;;;;;;5025148;28;20379;-82
2022/12/15 07:14:44;;;;;;;;;;;;;;;;;;5022883;28;19924;-82
2022/12/15 07:17:10;;;;;;;;;;;;;;;;;;5002590;28;19913;-81
2022/12/15 07:19:36;;;;;;;;;;;;;;;;;;5019545;28;20255;-82
2022/12/15 07:22:02;;;;;;;;;;;;;;;;;;5021070;28;19913;-85
2022/12/15 07:24:27;;;;;;;;;;;;;;;;;;5010951;28;19918;-86
2022/12/15 07:26:53;;;;;;;;;;;;;;;;;;5155113;22;19932;-88
2022/12/15 07:29:19;;;;;;;;;;;;;;;;;;5039470;28;19917;-84
2022/12/15 07:31:45;;;;;;;;;;;;;;;;;;5254089;22;19924;-87
2022/12/15 07:34:10;;;;;;;;;;;;;;;;;;5337989;22;19916;-82
2022/12/15 07:36:36;;;;;;;;;;;;;;;;;;5125967;22;19916;-84
2022/12/15 07:39:03;;;;;;;;;;;;;;;;;;5128432;22;19925;-88
2022/12/15 07:41:29;;;;;;;;;;;;;;;;;;5319607;22;19926;-81
2022/12/15 07:43:54;;;;;;;;;;;;;;;;;;5031776;28;19918;-87
2022/12/15 07:46:20;;;;;;;;;;;;;;;;;;5036708;28;19917;-80
2022/12/15 07:48:46;;;;;;;;;;;;;;;;;;5011221;28;19913;-80
2022/12/15 07:51:11;;;;;;;;;;;;;;;;;;5007462;28;19960;-80
2022/12/15 07:53:37;;;;;;;;;;;;;;;;;;5013608;28;20381;-81
2022/12/15 07:56:03;;;;;;;;;;;;;;;;;;5013353;28;19957;-79
2022/12/15 07:58:35;;;;;;;;;;;;;;;;;;5002330;28;20397;-81
2022/12/15 08:01:00;;;;;;;;;;;;;;;;;;5007850;28;19914;-79
2022/12/15 08:03:26;;;;;;;;;;;;;;;;;;5009838;28;19924;-80
2022/12/15 08:05:52;;;;;;;;;;;;;;;;;;5006739;28;19924;-78
2022/12/15 08:08:18;;;;;;;;;;;;;;;;;;5008190;28;19917;-80
2022/12/15 08:10:44;;;;;;;;;;;;;;;;;;5008229;28;19960;-79
2022/12/15 08:13:09;;;;;;;;;;;;;;;;;;4991451;28;20368;-78
2022/12/15 08:15:35;;;;;;;;;;;;;;;;;;5008153;28;19997;-80
2022/12/15 08:18:01;;;;;;;;;;;;;;;;;;5015400;28;19913;-79
2022/12/15 08:20:29;;;;;;;;;;;;;;;;;;5013736;28;19956;-83
2022/12/15 08:22:55;;;;;;;;;;;;;;;;;;5133073;22;20009;-85
2022/12/15 08:25:21;;;;;;;;;;;;;;;;;;5019230;28;19916;-87
2022/12/15 08:27:47;;;;;;;;;;;;;;;;;;5022397;28;19913;-81
2022/12/15 08:30:13;;;;;;;;;;;;;;;;;;5015239;28;19913;-86
2022/12/15 08:32:38;;;;;;;;;;;;;;;;;;5012918;28;20001;-82
2022/12/15 08:35:04;;;;;;;;;;;;;;;;;;5025924;28;19932;-82
2022/12/15 08:37:30;;;;;;;;;;;;;;;;;;5025237;28;19919;-82
2022/12/15 08:39:55;;;;;;;;;;;;;;;;;;5011725;28;20447;-80
2022/12/15 08:42:24;;;;;;;;;;;;;;;;;;5010099;28;19917;-82
2022/12/15 08:44:49;;;;;;;;;;;;;;;;;;4992115;28;19914;-83
2022/12/15 08:47:15;;;;;;;;;;;;;;;;;;4993638;28;19916;-82
2022/12/15 08:49:41;;;;;;;;;;;;;;;;;;4995424;28;20008;-79
2022/12/15 08:52:06;;;;;;;;;;;;;;;;;;5016540;28;19893;-83
2022/12/15 08:54:32;;;;;;;;;;;;;;;;;;5013402;28;19940;-81
2022/12/15 08:56:58;;;;;;;;;;;;;;;;;;5023658;28;19968;-83
2022/12/15 08:59:24;;;;;;;;;;;;;;;;;;5013092;28;19925;-89
2022/12/15 09:01:49;;;;;;;;;;;;;;;;;;5020402;28;19909;-82
2022/12/15 09:04:15;;;;;;;;;;;;;;;;;;5013561;28;19932;-80
2022/12/15 09:06:41;;;;;;;;;;;;;;;;;;5020372;28;19919;-80
2022/12/15 09:09:06;;;;;;;;;;;;;;;;;;5023013;28;19913;-81
2022/12/15 09:11:32;;;;;;;;;;;;;;;;;;5011404;28;20012;-81
2022/12/15 09:13:57;;;;;;;;;;;;;;;;;;5019727;28;19924;-85
2022/12/15 09:16:23;;;;;;;;;;;;;;;;;;5026813;28;19918;-82
2022/12/15 09:18:49;;;;;;;;;;;;;;;;;;5021500;28;19933;-81
2022/12/15 09:21:15;;;;;;;;;;;;;;;;;;5009100;28;20278;-79
2022/12/15 09:23:41;;;;;;;;;;;;;;;;;;4974463;28;19925;-78
2022/12/15 09:26:07;;;;;;;;;;;;;;;;;;4993410;28;19996;-81
2022/12/15 09:28:32;;;;;;;;;;;;;;;;;;4993016;28;19929;-78
2022/12/15 09:30:58;;;;;;;;;;;;;;;;;;4996390;28;19913;-79
2022/12/15 09:33:24;;;;;;;;;;;;;;;;;;5006300;28;19921;-78
2022/12/15 09:35:49;;;;;;;;;;;;;;;;;;5018540;28;19913;-84
2022/12/15 09:38:15;;;;;;;;;;;;;;;;;;5000716;28;19921;-81
2022/12/15 09:40:41;;;;;;;;;;;;;;;;;;5011948;28;19913;-80
2022/12/15 09:43:06;;;;;;;;;;;;;;;;;;5013324;28;19913;-83
2022/12/15 09:45:32;;;;;;;;;;;;;;;;;;5001289;28;19913;-83
2022/12/15 09:47:58;;;;;;;;;;;;;;;;;;5023043;28;19913;-81
2022/12/15 09:50:23;;;;;;;;;;;;;;;;;;5017162;28;19940;-80
2022/12/15 09:52:49;;;;;;;;;;;;;;;;;;5023136;28;19913;-82
2022/12/15 09:55:15;;;;;;;;;;;;;;;;;;5030588;28;20286;-81
2022/12/15 09:57:40;;;;;;;;;;;;;;;;;;5022224;28;19921;-81
2022/12/15 10:00:06;;;;;;;;;;;;;;;;;;5019299;28;19921;-81
2022/12/15 10:02:32;;;;;;;;;;;;;;;;;;5020991;28;20395;-80
2022/12/15 10:04:57;;;;;;;;;;;;;;;;;;5028142;28;19893;-84
2022/12/15 10:07:23;;;;;;;;;;;;;;;;;;5005468;28;19910;-84
2022/12/15 10:09:48;;;;;;;;;;;;;;;;;;5027605;28;19967;-80
2022/12/15 10:12:14;;;;;;;;;;;;;;;;;;5024407;28;20019;-80
2022/12/15 10:14:40;;;;;;;;;;;;;;;;;;5022451;28;19948;-81
2022/12/15 10:17:05;;;;;;;;;;;;;;;;;;5017317;28;19967;-84
2022/12/15 10:19:31;;;;;;;;;;;;;;;;;;5017921;28;20479;-86
2022/12/15 10:45:06;;;;;;;;;;;;;;;;;;5047563;28;19910;-83
2022/12/15 10:47:32;;;;;;;;;;;;;;;;;;5230628;22;19925;-82
2022/12/15 10:49:57;;;;;;;;;;;;;;;;;;5041491;28;19913;-83
2022/12/15 10:52:23;;;;;;;;;;;;;;;;;;5038983;28;20381;-81
2022/12/15 10:54:49;;;;;;;;;;;;;;;;;;5037652;28;19976;-81
2022/12/15 10:57:15;;;;;;;;;;;;;;;;;;5043383;28;19920;-81
2022/12/15 10:59:41;;;;;;;;;;;;;;;;;;5045218;28;19932;-86
2022/12/15 11:02:06;;;;;;;;;;;;;;;;;;5033377;28;19914;-82
2022/12/15 12:53:33;;;;;;;;;;;;;;;;;;1414156;26;19924;-79
2022/12/15 12:55:59;;;;;;;;;;;;;;;;;;5030241;28;20344;-78
2022/12/15 12:58:24;;;;;;;;;;;;;;;;;;5010456;28;19970;-79
2022/12/15 13:00:50;;;;;;;;;;;;;;;;;;5011575;28;19912;-78
2022/12/15 13:03:16;;;;;;;;;;;;;;;;;;5012574;28;20301;-80
2022/12/15 13:05:42;;;;;;;;;;;;;;;;;;5011931;28;20389;-79
2022/12/15 13:08:07;;;;;;;;;;;;;;;;;;5028390;28;20467;-80
2022/12/15 13:10:33;;;;;;;;;;;;;;;;;;5004309;28;20452;-79
2022/12/15 13:12:59;;;;;;;;;;;;;;;;;;5027873;28;20393;-80
2022/12/15 13:15:25;;;;;;;;;;;;;;;;;;5023472;28;19912;-80
2022/12/15 13:17:50;;;;;;;;;;;;;;;;;;4990609;28;20023;-79
2022/12/15 13:20:16;;;;;;;;;;;;;;;;;;5010408;28;19921;-81
2022/12/15 13:22:43;;;;;;;;;;;;;;;;;;5027864;28;20558;-79
2022/12/15 13:25:08;;;;;;;;;;;;;;;;;;5012087;28;19944;-80
2022/12/15 13:27:34;;;;;;;;;;;;;;;;;;5018858;28;19920;-80
2022/12/15 13:30:03;;;;;;;;;;;;;;;;;;5009534;28;19920;-80
2022/12/15 13:32:30;;;;;;;;;;;;;;;;;;4994170;28;19950;-79
2022/12/15 13:34:55;;;;;;;;;;;;;;;;;;5008993;28;19913;-80
2022/12/15 13:37:21;;;;;;;;;;;;;;;;;;5008674;28;20004;-80
2022/12/15 13:39:47;;;;;;;;;;;;;;;;;;4991512;28;20011;-79
2022/12/15 13:42:12;;;;;;;;;;;;;;;;;;5009681;28;19913;-80
2022/12/15 13:44:41;;;;;;;;;;;;;;;;;;4992409;28;19914;-80
2022/12/15 13:47:08;;;;;;;;;;;;;;;;;;5017723;28;19920;-81
2022/12/15 13:49:33;;;;;;;;;;;;;;;;;;4986993;28;19932;-81
2022/12/15 13:51:59;;;;;;;;;;;;;;;;;;4996056;28;20533;-82
2022/12/15 13:54:25;;;;;;;;;;;;;;;;;;4999869;28;19979;-81
2022/12/15 13:56:51;;;;;;;;;;;;;;;;;;5032574;28;19917;-81
2022/12/15 13:59:17;;;;;;;;;;;;;;;;;;5003844;28;20314;-82
2022/12/15 14:01:42;;;;;;;;;;;;;;;;;;4993348;28;19914;-80
2022/12/15 14:04:09;;;;;;;;;;;;;;;;;;5014979;28;19913;-81
2022/12/15 14:06:35;;;;;;;;;;;;;;;;;;5009386;28;19920;-81
2022/12/15 14:09:00;;;;;;;;;;;;;;;;;;5013095;28;19909;-80
2022/12/15 14:11:29;;;;;;;;;;;;;;;;;;5014112;28;20358;-80
2022/12/15 14:13:57;;;;;;;;;;;;;;;;;;5013859;28;19913;-80
2022/12/15 14:16:23;;;;;;;;;;;;;;;;;;4994741;28;19956;-81
2022/12/15 14:18:49;;;;;;;;;;;;;;;;;;4996682;28;19921;-80
2022/12/15 14:21:15;;;;;;;;;;;;;;;;;;5013594;28;19913;-81
2022/12/15 14:23:41;;;;;;;;;;;;;;;;;;4991623;28;19913;-81
2022/12/15 14:26:07;;;;;;;;;;;;;;;;;;5013475;28;19983;-81
2022/12/15 14:28:32;;;;;;;;;;;;;;;;;;5015590;28;19921;-80
2022/12/15 14:30:58;;;;;;;;;;;;;;;;;;4979027;28;19920;-81
2022/12/15 14:33:24;;;;;;;;;;;;;;;;;;5010405;28;19944;-82
2022/12/15 14:35:49;;;;;;;;;;;;;;;;;;5006272;28;19940;-81
2022/12/15 14:38:15;;;;;;;;;;;;;;;;;;5021758;28;19927;-84
2022/12/15 14:40:41;;;;;;;;;;;;;;;;;;4995419;28;19960;-80
2022/12/15 14:43:06;;;;;;;;;;;;;;;;;;4996393;28;19920;-82
2022/12/15 15:43:25;;;;;;;;;;;;;;;;;;5040035;28;19925;-83
2022/12/15 15:45:51;;;;;;;;;;;;;;;;;;5037029;28;19917;-77
2022/12/15 15:48:17;;;;;;;;;;;;;;;;;;5038692;28;19913;-78
2022/12/15 15:50:42;;;;;;;;;;;;;;;;;;5037148;28;20374;-77
2022/12/15 15:53:08;;;;;;;;;;;;;;;;;;5039558;28;19921;-78
2022/12/15 15:55:34;;;;;;;;;;;;;;;;;;5038652;28;19936;-77
2022/12/15 15:57:59;;;;;;;;;;;;;;;;;;5025320;28;20385;-77
2022/12/15 16:00:25;;;;;;;;;;;;;;;;;;5040326;28;19963;-76
2022/12/15 16:02:51;;;;;;;;;;;;;;;;;;5037085;28;20047;-77
2022/12/15 16:05:16;;;;;;;;;;;;;;;;;;5023464;28;19940;-78
2022/12/15 16:07:42;;;;;;;;;;;;;;;;;;5042266;28;19913;-81
2022/12/15 16:10:08;;;;;;;;;;;;;;;;;;5042276;28;20352;-77
2022/12/15 16:12:33;;;;;;;;;;;;;;;;;;5040770;28;19920;-79
2022/12/15 16:14:59;;;;;;;;;;;;;;;;;;5024629;28;19913;-77
2022/12/15 16:17:25;;;;;;;;;;;;;;;;;;5041182;28;20000;-76
2022/12/15 16:19:51;;;;;;;;;;;;;;;;;;5022763;28;19920;-77
2022/12/15 16:22:16;;;;;;;;;;;;;;;;;;5022812;28;19919;-78
2022/12/15 16:24:42;;;;;;;;;;;;;;;;;;5042686;28;19919;-78
2022/12/15 16:27:08;;;;;;;;;;;;;;;;;;5030776;28;19988;-78
2022/12/15 16:29:34;;;;;;;;;;;;;;;;;;5022747;28;20021;-78
2022/12/15 16:31:59;;;;;;;;;;;;;;;;;;5005247;28;19914;-78
2022/12/15 16:34:25;;;;;;;;;;;;;;;;;;5006000;28;19920;-77
2022/12/15 16:36:51;;;;;;;;;;;;;;;;;;5023761;28;20327;-77
2022/12/15 16:39:18;;;;;;;;;;;;;;;;;;5017560;28;19922;-77
2022/12/15 16:41:44;;;;;;;;;;;;;;;;;;5022565;28;19929;-78
2022/12/15 16:44:09;;;;;;;;;;;;;;;;;;5022694;28;19913;-78
2022/12/15 16:46:35;;;;;;;;;;;;;;;;;;5024721;28;20036;-78
2022/12/15 16:49:01;;;;;;;;;;;;;;;;;;5020668;28;20546;-78
2022/12/15 16:51:26;;;;;;;;;;;;;;;;;;5004777;28;19918;-78
2022/12/15 16:53:52;;;;;;;;;;;;;;;;;;5018886;28;19912;-78
2022/12/15 16:56:18;;;;;;;;;;;;;;;;;;5018716;28;19949;-79
2022/12/15 16:58:44;;;;;;;;;;;;;;;;;;5022855;28;19921;-77
2022/12/15 17:01:09;;;;;;;;;;;;;;;;;;5001900;28;19957;-77
2022/12/15 17:03:37;;;;;;;;;;;;;;;;;;5021365;28;19913;-75
2022/12/15 17:06:03;;;;;;;;;;;;;;;;;;4985782;28;19913;-78
2022/12/15 17:08:29;;;;;;;;;;;;;;;;;;5002466;28;20782;-79
2022/12/15 17:11:00;;;;;;;;;;;;;;;;;;5006142;28;19920;-79
2022/12/15 17:13:29;;;;;;;;;;;;;;;;;;5020717;28;19913;-79
2022/12/15 17:15:55;;;;;;;;;;;;;;;;;;5005328;28;19937;-78
2022/12/15 17:18:21;;;;;;;;;;;;;;;;;;5020743;28;20300;-78
2022/12/15 17:20:46;;;;;;;;;;;;;;;;;;5021419;28;19948;-79
2022/12/15 17:23:12;;;;;;;;;;;;;;;;;;4984868;28;19917;-79
2022/12/15 17:25:40;;;;;;;;;;;;;;;;;;5001543;28;19919;-78
2022/12/15 17:28:09;;;;;;;;;;;;;;;;;;5027875;28;19988;-80
2022/12/15 17:30:34;;;;;;;;;;;;;;;;;;5017347;28;19917;-79
2022/12/15 17:33:00;;;;;;;;;;;;;;;;;;5006262;28;20301;-79
2022/12/15 17:35:26;;;;;;;;;;;;;;;;;;5005759;28;19957;-80
2022/12/15 17:37:54;;;;;;;;;;;;;;;;;;4980316;28;19964;-80
2022/12/15 17:40:20;;;;;;;;;;;;;;;;;;5013647;28;19933;-81
2022/12/15 17:42:46;;;;;;;;;;;;;;;;;;5021049;28;19925;-81
2022/12/15 17:45:12;;;;;;;;;;;;;;;;;;5004985;28;19924;-80
2022/12/15 17:47:38;;;;;;;;;;;;;;;;;;5004823;28;19920;-80
2022/12/15 17:50:04;;;;;;;;;;;;;;;;;;5021199;28;19941;-80
2022/12/15 17:52:33;;;;;;;;;;;;;;;;;;4997484;28;19913;-78
2022/12/15 17:54:58;;;;;;;;;;;;;;;;;;5001325;28;19968;-81
2022/12/15 17:57:24;;;;;;;;;;;;;;;;;;5004142;28;19932;-81
2022/12/15 17:59:50;;;;;;;;;;;;;;;;;;4992956;28;19925;-80
2022/12/15 18:02:15;;;;;;;;;;;;;;;;;;5004111;28;20669;-80
2022/12/15 18:04:41;;;;;;;;;;;;;;;;;;5015349;28;19921;-80
2022/12/15 18:07:07;;;;;;;;;;;;;;;;;;5021611;28;19913;-81
2022/12/15 18:09:33;;;;;;;;;;;;;;;;;;5017571;28;19908;-80
2022/12/15 18:11:58;;;;;;;;;;;;;;;;;;5001094;28;19937;-79
2022/12/15 18:14:24;;;;;;;;;;;;;;;;;;4998357;28;20367;-79
2022/12/15 18:16:49;;;;;;;;;;;;;;;;;;5015924;28;19913;-80
2022/12/15 18:19:15;;;;;;;;;;;;;;;;;;5025519;28;20615;-81
2022/12/15 18:21:41;;;;;;;;;;;;;;;;;;5027546;28;19964;-81
2022/12/15 18:24:06;;;;;;;;;;;;;;;;;;5026944;28;19940;-80
2022/12/15 18:26:36;;;;;;;;;;;;;;;;;;5018902;28;20590;-80
2022/12/15 18:29:03;;;;;;;;;;;;;;;;;;5024830;28;19913;-81
2022/12/15 18:31:29;;;;;;;;;;;;;;;;;;5031100;28;19928;-82
2022/12/15 18:33:55;;;;;;;;;;;;;;;;;;5029140;28;19952;-82
2022/12/15 18:36:20;;;;;;;;;;;;;;;;;;5009657;28;19906;-82
2022/12/15 18:38:46;;;;;;;;;;;;;;;;;;5025540;28;19921;-81
2022/12/15 18:41:11;;;;;;;;;;;;;;;;;;5025106;28;19932;-81
2022/12/15 18:43:38;;;;;;;;;;;;;;;;;;5030342;28;19920;-82
2022/12/15 18:46:03;;;;;;;;;;;;;;;;;;5032219;28;19924;-80
2022/12/15 18:48:29;;;;;;;;;;;;;;;;;;5022149;28;19913;-80
2022/12/15 18:50:55;;;;;;;;;;;;;;;;;;5007250;28;19917;-81
2022/12/15 18:53:20;;;;;;;;;;;;;;;;;;5009144;28;19972;-81
2022/12/15 18:55:47;;;;;;;;;;;;;;;;;;5003914;28;19981;-79
2022/12/15 18:58:12;;;;;;;;;;;;;;;;;;5020786;28;19917;-80
2022/12/15 19:00:38;;;;;;;;;;;;;;;;;;5020959;28;19989;-81
2022/12/15 19:03:03;;;;;;;;;;;;;;;;;;5021676;28;19964;-80
2022/12/15 19:05:31;;;;;;;;;;;;;;;;;;5019383;28;19924;-80
2022/12/15 19:07:57;;;;;;;;;;;;;;;;;;5026522;28;19913;-80
2022/12/15 19:10:22;;;;;;;;;;;;;;;;;;5025618;28;19913;-82
2022/12/15 19:12:48;;;;;;;;;;;;;;;;;;5024469;28;20305;-81
2022/12/15 19:15:14;;;;;;;;;;;;;;;;;;5001080;28;20417;-84
2022/12/15 19:23:25;;;;;;;;;;;;;;;;;;5021431;28;19919;-81
2022/12/15 19:25:50;;;;;;;;;;;;;;;;;;5026579;28;19948;-80
2022/12/15 19:28:16;;;;;;;;;;;;;;;;;;5029941;28;19909;-81
2022/12/15 19:30:42;;;;;;;;;;;;;;;;;;5138177;22;19939;-83
2022/12/15 19:33:08;;;;;;;;;;;;;;;;;;5029348;28;19948;-83
2022/12/15 19:35:33;;;;;;;;;;;;;;;;;;5035147;28;19940;-81
2022/12/15 19:38:00;;;;;;;;;;;;;;;;;;5035765;28;20783;-85
2022/12/15 19:40:26;;;;;;;;;;;;;;;;;;5113466;22;19925;-86
2022/12/15 19:42:52;;;;;;;;;;;;;;;;;;5193146;22;19920;-82
2022/12/15 19:45:17;;;;;;;;;;;;;;;;;;5016178;28;19917;-77
2022/12/15 19:47:43;;;;;;;;;;;;;;;;;;5030389;28;19923;-75
2022/12/15 19:50:14;;;;;;;;;;;;;;;;;;5031534;28;19913;-76
2022/12/15 19:52:41;;;;;;;;;;;;;;;;;;5017772;28;20444;-79
2022/12/15 19:55:07;;;;;;;;;;;;;;;;;;5019012;28;19913;-79
2022/12/15 19:57:34;;;;;;;;;;;;;;;;;;5001807;28;19947;-81
2022/12/15 20:00:00;;;;;;;;;;;;;;;;;;5017382;28;20301;-79
2022/12/15 20:02:25;;;;;;;;;;;;;;;;;;4996247;28;19917;-79
2022/12/15 20:04:51;;;;;;;;;;;;;;;;;;5028375;28;19909;-79
2022/12/15 20:07:16;;;;;;;;;;;;;;;;;;5034840;28;19958;-76
2022/12/15 20:09:42;;;;;;;;;;;;;;;;;;5018316;28;20023;-79
2022/12/15 20:12:08;;;;;;;;;;;;;;;;;;5036059;28;19913;-77
2022/12/15 20:14:33;;;;;;;;;;;;;;;;;;5016620;28;19984;-77
2022/12/15 20:16:59;;;;;;;;;;;;;;;;;;5035016;28;19952;-79
2022/12/15 20:19:25;;;;;;;;;;;;;;;;;;5033804;28;19933;-77
2022/12/15 20:21:51;;;;;;;;;;;;;;;;;;5039831;28;19913;-77
2022/12/15 20:24:16;;;;;;;;;;;;;;;;;;5037597;28;19913;-77
2022/12/15 20:26:42;;;;;;;;;;;;;;;;;;5041729;28;19913;-77
2022/12/15 20:29:08;;;;;;;;;;;;;;;;;;5039615;28;19917;-77
2022/12/15 20:31:33;;;;;;;;;;;;;;;;;;5040726;28;19913;-77
2022/12/15 20:33:59;;;;;;;;;;;;;;;;;;5018667;28;19960;-78
2022/12/15 20:36:25;;;;;;;;;;;;;;;;;;5040227;28;20384;-77
2022/12/15 20:38:50;;;;;;;;;;;;;;;;;;5042899;28;19988;-80
2022/12/15 20:41:16;;;;;;;;;;;;;;;;;;5036256;28;19913;-78
2022/12/15 20:43:41;;;;;;;;;;;;;;;;;;5039679;28;19921;-81
2022/12/15 20:46:07;;;;;;;;;;;;;;;;;;5042239;28;20009;-80
2022/12/15 20:48:33;;;;;;;;;;;;;;;;;;5035930;28;20313;-79
2022/12/15 20:50:59;;;;;;;;;;;;;;;;;;5006510;28;20389;-78
2022/12/15 20:53:24;;;;;;;;;;;;;;;;;;5039121;28;20324;-81
2022/12/15 21:17:39;;;;;;;;;;;;;;;;;;3253584;26;19988;-77
2022/12/15 21:20:05;;;;;;;;;;;;;;;;;;5018609;28;20413;-78
2022/12/15 21:22:31;;;;;;;;;;;;;;;;;;5029527;28;19917;-76
2022/12/15 21:24:57;;;;;;;;;;;;;;;;;;5025583;28;19917;-77
2022/12/15 21:27:23;;;;;;;;;;;;;;;;;;5027914;28;19913;-77
2022/12/15 21:29:48;;;;;;;;;;;;;;;;;;5030438;28;19939;-76
2022/12/15 21:32:14;;;;;;;;;;;;;;;;;;5018999;28;19936;-75
2022/12/15 21:34:40;;;;;;;;;;;;;;;;;;5039087;28;19913;-76
2022/12/15 21:37:05;;;;;;;;;;;;;;;;;;5014880;28;19956;-77
2022/12/15 21:39:32;;;;;;;;;;;;;;;;;;5038218;28;19936;-76
2022/12/15 21:41:58;;;;;;;;;;;;;;;;;;5034509;28;19912;-76
2022/12/15 21:44:24;;;;;;;;;;;;;;;;;;5032559;28;19919;-76
2022/12/15 21:46:50;;;;;;;;;;;;;;;;;;5031938;28;19917;-75
2022/12/15 21:49:19;;;;;;;;;;;;;;;;;;5035118;28;19931;-78
2022/12/15 21:51:45;;;;;;;;;;;;;;;;;;5043473;28;20296;-77
2022/12/15 21:54:11;;;;;;;;;;;;;;;;;;5043211;28;19936;-79
2022/12/15 21:56:36;;;;;;;;;;;;;;;;;;5043252;28;19944;-77
2022/12/15 21:59:02;;;;;;;;;;;;;;;;;;5028551;28;19923;-77
2022/12/15 22:01:28;;;;;;;;;;;;;;;;;;5044119;28;19917;-78
2022/12/15 22:03:54;;;;;;;;;;;;;;;;;;5040156;28;19909;-77
2022/12/15 22:06:19;;;;;;;;;;;;;;;;;;5039233;28;19918;-77
2022/12/15 22:08:45;;;;;;;;;;;;;;;;;;5039017;28;20388;-76
2022/12/15 22:11:11;;;;;;;;;;;;;;;;;;5003543;28;21295;-77
2022/12/15 22:13:36;;;;;;;;;;;;;;;;;;5034855;28;19913;-75
2022/12/15 22:16:02;;;;;;;;;;;;;;;;;;5038509;28;19913;-77
2022/12/15 22:18:28;;;;;;;;;;;;;;;;;;5035853;28;19955;-75
2022/12/15 22:20:54;;;;;;;;;;;;;;;;;;5034832;28;20435;-75
2022/12/15 22:23:20;;;;;;;;;;;;;;;;;;5017504;28;19935;-75
2022/12/15 22:25:45;;;;;;;;;;;;;;;;;;5035276;28;19913;-75
2022/12/15 22:28:11;;;;;;;;;;;;;;;;;;5018158;28;19920;-75
2022/12/15 22:30:37;;;;;;;;;;;;;;;;;;5035622;28;19919;-75
2022/12/15 22:33:03;;;;;;;;;;;;;;;;;;5035853;28;19967;-74
2022/12/15 22:35:29;;;;;;;;;;;;;;;;;;5011470;28;19912;-75
2022/12/15 22:37:55;;;;;;;;;;;;;;;;;;5028841;28;19917;-75
2022/12/15 22:40:20;;;;;;;;;;;;;;;;;;5017195;28;19920;-74